Aviation Digital Data Service (ADDS)

Output produced by METARs form (0741 UTC 23 April 2018)
found at http://aviationweather.gov/adds/metars/
 
KMSS 230653Z AUTO 00000KT 10SM CLR M02/M05 A3042 RMK AO2 SLP306 T10221050
KMSS 230553Z AUTO 00000KT 10SM CLR M02/M04 A3042 RMK AO2 SLP307 T10171039 10122 21022 51004
KMSS 230453Z AUTO 00000KT 10SM CLR M01/M04 A3042 RMK AO2 SLP306 T10111044 401561044
KMSS 230538Z 2306/2406 VRB01KT P6SM SKC 
     FM231600 23010KT P6SM FEW250 
     FM232100 VRB04KT P6SM SKC